Time;durP1;ratioP1;P1;durP2;ratioP2;P2;SDS_P1;SDS_P2;PMS_P1;PMS_P2;Temp;Humidity;BMP_temperature;BMP_pressure;BME280_temperature;BME280_humidity;BME280_pressure;Samples;Min_cycle;Max_cycle;Signal;HPM_P1;HPM_P2
2022/03/14 00:02:21;;;;;;;2.25;2.15;;;;;;;10.21;64.54;101076.78;5015360;27;20535;-71
2022/03/14 00:04:50;;;;;;;2.33;2.20;;;;;;;10.17;65.06;101088.59;5012502;27;20028;-71
2022/03/14 00:07:15;;;;;;;2.22;2.13;;;;;;;10.21;65.82;101086.53;5014783;27;20333;-72
2022/03/14 00:09:41;;;;;;;2.30;2.20;;;;;;;10.20;65.74;101095.44;5006530;27;20511;-71
2022/03/14 00:12:13;;;;;;;2.60;2.50;;;;;;;10.16;66.07;101091.38;5011627;28;20177;-71
2022/03/14 00:14:38;;;;;;;2.80;2.60;;;;;;;10.05;66.77;101094.88;5014121;28;20117;-71
2022/03/14 00:17:11;;;;;;;2.78;2.67;;;;;;;9.96;67.19;101099.09;4998115;28;20009;-70
2022/03/14 00:19:36;;;;;;;3.25;3.00;;;;;;;10.07;67.29;101108.81;5016380;27;20028;-71
2022/03/14 00:22:02;;;;;;;3.53;3.20;;;;;;;10.27;67.61;101093.97;5013464;28;20026;-71
2022/03/14 00:24:28;;;;;;;3.33;3.13;;;;;;;10.15;69.75;101079.94;4994502;28;20036;-71
2022/03/14 00:26:54;;;;;;;2.90;2.80;;;;;;;10.12;69.86;101082.81;5010646;28;20025;-72
2022/03/14 00:29:21;;;;;;;2.80;2.70;;;;;;;10.19;70.25;101091.94;5033840;27;20070;-70
2022/03/14 00:31:46;;;;;;;3.85;2.55;;;;;;;10.18;70.09;101103.50;5018293;27;20032;-71
2022/03/14 00:34:14;;;;;;;3.13;2.83;;;;;;;10.16;70.45;101117.81;4997989;27;20019;-72
2022/03/14 00:36:41;;;;;;;3.28;2.95;;;;;;;10.00;72.31;101118.19;5004069;27;20325;-70
2022/03/14 00:39:06;;;;;;;3.20;2.90;;;;;;;9.87;73.03;101118.34;5041125;27;20104;-71
2022/03/14 00:41:32;;;;;;;3.28;3.05;;;;;;;9.83;72.97;101128.34;5013615;27;20020;-71
2022/03/14 00:43:57;;;;;;;4.18;3.78;;;;;;;9.85;73.06;101131.69;5017435;27;20040;-72
2022/03/14 00:46:23;;;;;;;4.20;3.90;;;;;;;9.78;74.07;101133.13;5033999;27;20020;-71
2022/03/14 00:48:48;;;;;;;4.25;4.05;;;;;;;9.78;73.50;101125.22;5054714;27;20023;-71
2022/03/14 00:51:13;;;;;;;4.47;4.18;;;;;;;9.70;73.66;101132.91;5055666;27;20250;-71
2022/03/14 00:53:39;;;;;;;4.13;3.85;;;;;;;9.73;73.21;101133.50;5037796;27;20016;-72
2022/03/14 00:56:05;;;;;;;4.63;4.22;;;;;;;9.71;73.89;101134.59;5019699;27;20001;-71
2022/03/14 00:58:30;;;;;;;5.15;4.78;;;;;;;9.66;74.53;101136.75;5020623;27;20032;-71
2022/03/14 01:00:56;;;;;;;4.88;4.57;;;;;;;9.73;73.95;101143.22;5035588;27;20023;-70
2022/03/14 01:03:21;;;;;;;4.70;4.40;;;;;;;9.67;74.11;101143.72;5055233;27;20057;-71
2022/03/14 01:05:47;;;;;;;4.95;4.55;;;;;;;9.66;74.32;101155.25;5022913;28;20006;-71
2022/03/14 01:08:12;;;;;;;4.95;4.32;;;;;;;9.67;73.43;101156.94;5009430;27;20013;-71
2022/03/14 01:10:38;;;;;;;4.82;4.53;;;;;;;9.61;73.88;101168.81;5016002;27;20006;-72
2022/03/14 01:13:04;;;;;;;5.60;5.00;;;;;;;9.55;74.72;101167.50;5037450;27;20055;-72
2022/03/14 01:15:31;;;;;;;4.95;4.55;;;;;;;9.68;74.53;101185.03;5024586;27;20624;-72
2022/03/14 01:17:57;;;;;;;4.60;4.20;;;;;;;9.68;73.82;101171.84;5007373;27;20052;-72
2022/03/14 01:20:22;;;;;;;5.00;4.60;;;;;;;9.60;74.65;101181.22;5023161;27;20026;-71
2022/03/14 01:22:48;;;;;;;4.85;4.45;;;;;;;9.72;73.94;101183.84;5043248;27;20786;-71
2022/03/14 01:25:13;;;;;;;4.55;4.25;;;;;;;9.75;73.54;101183.59;5008144;27;20144;-71
2022/03/14 01:27:39;;;;;;;4.78;4.40;;;;;;;9.72;73.69;101189.13;5043531;27;20017;-72
2022/03/14 01:30:04;;;;;;;4.60;4.30;;;;;;;9.71;73.95;101190.91;5043068;27;20052;-72
2022/03/14 01:32:30;;;;;;;4.65;4.10;;;;;;;9.70;74.52;101188.41;5043266;27;20040;-71
2022/03/14 01:34:55;;;;;;;4.25;4.00;;;;;;;9.64;75.13;101184.44;5047027;27;20082;-70
2022/03/14 01:37:20;;;;;;;4.40;4.20;;;;;;;9.65;75.41;101188.75;5017293;27;20494;-72
2022/03/14 01:39:46;;;;;;;4.40;4.07;;;;;;;9.68;75.77;101192.97;5030748;27;20021;-72
2022/03/14 01:42:18;;;;;;;4.15;3.85;;;;;;;9.62;76.17;101207.50;4990571;27;20267;-71
2022/03/14 01:44:46;;;;;;;4.20;3.90;;;;;;;9.58;76.93;101208.69;5025122;27;20009;-71
2022/03/14 01:47:11;;;;;;;4.25;3.80;;;;;;;9.60;76.37;101210.28;5009560;27;20016;-70
2022/03/14 01:49:37;;;;;;;3.97;3.67;;;;;;;9.59;76.98;101213.03;5045139;27;20281;-71
2022/03/14 01:52:05;;;;;;;4.20;4.00;;;;;;;9.59;76.68;101213.03;5026478;27;20040;-71
2022/03/14 01:54:31;;;;;;;4.00;3.80;;;;;;;9.50;77.93;101219.84;5028908;27;20873;-70
2022/03/14 01:56:57;;;;;;;4.07;3.80;;;;;;;9.58;77.89;101219.28;5028490;27;20048;-71
2022/03/14 01:59:22;;;;;;;3.90;3.70;;;;;;;9.62;78.19;101216.25;4994239;27;20911;-71
2022/03/14 02:01:47;;;;;;;4.05;3.67;;;;;;;9.60;79.46;101227.91;4992538;27;20032;-72
2022/03/14 02:04:18;;;;;;;4.07;3.78;;;;;;;9.55;79.94;101224.81;5046947;27;20028;-71
2022/03/14 02:06:45;;;;;;;3.90;3.70;;;;;;;9.56;80.68;101226.47;5025751;27;20405;-72
2022/03/14 02:09:11;;;;;;;3.78;3.58;;;;;;;9.57;81.13;101231.63;5034316;27;21006;-72
2022/03/14 02:11:36;;;;;;;3.83;3.60;;;;;;;9.54;81.79;101229.22;5043638;27;20101;-71
2022/03/14 02:14:03;;;;;;;4.13;3.83;;;;;;;9.50;82.45;101238.34;5004347;27;20005;-71
2022/03/14 02:16:28;;;;;;;4.57;4.10;;;;;;;9.49;83.53;101231.41;5056870;27;20051;-72
2022/03/14 02:18:55;;;;;;;4.85;4.03;;;;;;;9.44;83.68;101241.47;5045870;27;20152;-70
2022/03/14 02:21:20;;;;;;;4.18;3.90;;;;;;;9.42;83.71;101241.59;5036582;27;20573;-71
2022/03/14 02:23:46;;;;;;;4.13;3.80;;;;;;;9.46;84.20;101255.38;5016098;27;20021;-71
2022/03/14 02:26:11;;;;;;;6.25;4.03;;;;;;;9.46;84.49;101250.09;5015292;27;20020;-71
2022/03/14 02:28:37;;;;;;;4.30;3.90;;;;;;;9.44;84.65;101249.38;5049163;27;20097;-71
2022/03/14 02:31:03;;;;;;;3.88;3.67;;;;;;;9.43;84.69;101261.75;5054216;27;20015;-71
2022/03/14 02:33:29;;;;;;;4.50;4.13;;;;;;;9.37;85.20;101258.75;5056110;27;20032;-71
2022/03/14 02:35:54;;;;;;;4.20;3.88;;;;;;;9.36;85.83;101259.69;5028637;27;20044;-72
2022/03/14 02:38:20;;;;;;;4.30;4.00;;;;;;;9.38;86.40;101265.72;5009627;27;20040;-71
2022/03/14 02:40:46;;;;;;;5.25;4.13;;;;;;;9.35;86.41;101273.84;5024275;27;20914;-71
2022/03/14 02:43:16;;;;;;;4.30;4.10;;;;;;;9.31;86.90;101275.88;5002493;27;20480;-72
2022/03/14 02:45:42;;;;;;;4.82;4.43;;;;;;;9.27;87.33;101285.81;4998969;27;20059;-71
2022/03/14 02:48:07;;;;;;;4.60;4.25;;;;;;;9.25;87.17;101282.47;5016171;27;20021;-71
2022/03/14 02:50:34;;;;;;;4.45;4.07;;;;;;;9.20;87.66;101287.25;4999783;27;20032;-72
2022/03/14 02:52:59;;;;;;;5.10;4.43;;;;;;;9.17;87.27;101290.13;5016851;27;20496;-70
2022/03/14 02:55:25;;;;;;;4.80;4.50;;;;;;;9.06;87.96;101296.19;5034972;27;20016;-71
2022/03/14 02:57:51;;;;;;;4.78;4.47;;;;;;;9.04;88.60;101287.56;5035194;27;20339;-71
2022/03/14 03:00:16;;;;;;;5.38;4.75;;;;;;;9.05;88.46;101286.59;5015273;27;20760;-71
2022/03/14 03:02:42;;;;;;;5.55;5.05;;;;;;;9.05;89.15;101291.03;5000376;27;20162;-71
2022/03/14 03:05:08;;;;;;;4.90;4.60;;;;;;;8.96;89.45;101304.91;4999837;27;20025;-71
2022/03/14 03:07:36;;;;;;;5.45;5.05;;;;;;;9.00;89.58;101306.38;5024401;27;20076;-72
2022/03/14 03:10:03;;;;;;;5.07;4.78;;;;;;;8.90;89.65;101309.69;5017030;27;20020;-73
2022/03/14 03:12:31;;;;;;;5.43;4.95;;;;;;;8.95;90.55;101309.34;5017984;27;20101;-71
2022/03/14 03:14:57;;;;;;;5.30;4.85;;;;;;;8.89;90.54;101313.25;5033250;27;20708;-71
2022/03/14 03:17:23;;;;;;;8.02;5.40;;;;;;;8.91;90.54;101311.38;5000826;27;20016;-71
2022/03/14 03:19:48;;;;;;;6.03;5.15;;;;;;;8.89;90.91;101318.53;5036702;27;20205;-71
2022/03/14 03:22:13;;;;;;;5.30;4.90;;;;;;;8.82;90.56;101321.75;5015501;27;20255;-72
2022/03/14 03:24:39;;;;;;;5.63;5.13;;;;;;;8.81;91.82;101325.34;4998004;27;20020;-72
2022/03/14 03:27:04;;;;;;;5.65;5.13;;;;;;;8.85;91.18;101329.44;4996132;27;20024;-71
2022/03/14 03:29:30;;;;;;;5.95;5.20;;;;;;;8.75;92.12;101326.63;4996880;27;20052;-73
2022/03/14 03:31:55;;;;;;;5.40;4.90;;;;;;;8.74;92.50;101332.84;4996356;27;20037;-70
2022/03/14 03:34:21;;;;;;;4.95;4.55;;;;;;;8.83;92.31;101341.91;5032611;27;20021;-71
2022/03/14 03:36:46;;;;;;;5.60;5.10;;;;;;;8.85;92.28;101337.38;5039103;27;20231;-72
2022/03/14 03:39:11;;;;;;;5.18;4.78;;;;;;;8.89;92.35;101344.94;5017336;27;20903;-71
2022/03/14 03:41:38;;;;;;;5.15;4.65;;;;;;;8.84;92.36;101341.81;4978271;27;20016;-71
2022/03/14 03:44:04;;;;;;;4.60;4.30;;;;;;;8.90;92.49;101357.19;5015446;27;20024;-71
2022/03/14 03:46:29;;;;;;;5.20;4.80;;;;;;;8.94;92.85;101356.00;5033946;27;20020;-72
2022/03/14 03:48:55;;;;;;;5.32;4.93;;;;;;;9.00;92.33;101356.53;5031247;27;20009;-71
2022/03/14 03:51:21;;;;;;;5.10;4.68;;;;;;;8.89;92.65;101363.41;5013486;27;20040;-72
2022/03/14 03:53:46;;;;;;;4.55;4.25;;;;;;;8.89;93.05;101363.41;4999342;27;20025;-72
2022/03/14 03:56:11;;;;;;;4.93;4.43;;;;;;;8.93;92.28;101356.97;5032655;27;20031;-70
2022/03/14 03:58:37;;;;;;;4.75;4.45;;;;;;;8.86;92.66;101371.56;5013813;27;20284;-71
2022/03/14 04:01:02;;;;;;;4.72;4.32;;;;;;;8.84;93.12;101372.63;5033705;27;20851;-72
2022/03/14 04:03:28;;;;;;;4.95;4.47;;;;;;;8.83;92.49;101369.16;4982901;27;20016;-72
2022/03/14 04:05:53;;;;;;;5.32;4.80;;;;;;;8.89;92.76;101378.41;5007070;27;20009;-73
2022/03/14 04:08:19;;;;;;;4.75;4.32;;;;;;;8.77;93.31;101378.34;5047765;27;20056;-71
2022/03/14 04:10:54;;;;;;;4.32;4.10;;;;;;;8.89;92.85;101389.81;5034162;27;20256;-72
2022/03/14 04:13:23;;;;;;;4.68;4.38;;;;;;;8.84;92.98;101386.66;4998207;27;20108;-72
2022/03/14 04:15:55;;;;;;;4.50;4.10;;;;;;;8.81;93.45;101384.22;5000613;27;20404;-72
2022/03/14 04:18:23;;;;;;;4.75;4.35;;;;;;;8.84;93.70;101393.72;4982985;27;20043;-72
2022/03/14 04:20:48;;;;;;;5.47;4.97;;;;;;;8.81;93.15;101396.59;5015597;27;20078;-71
2022/03/14 04:23:18;;;;;;;5.72;5.20;;;;;;;8.74;94.04;101396.19;5034652;27;21036;-71
2022/03/14 04:25:44;;;;;;;5.05;4.75;;;;;;;8.81;94.20;101400.06;5001616;27;20020;-71
2022/03/14 04:28:11;;;;;;;4.88;4.55;;;;;;;8.82;93.90;101401.75;5016072;27;20290;-71
2022/03/14 04:30:36;;;;;;;6.57;5.40;;;;;;;8.76;93.90;101412.75;5000885;27;20176;-72
2022/03/14 04:33:02;;;;;;;6.05;5.05;;;;;;;8.82;94.34;101409.69;5002160;27;20627;-72
2022/03/14 04:35:27;;;;;;;6.38;5.78;;;;;;;8.89;94.30;101413.56;5052481;27;20024;-71
2022/03/14 04:37:52;;;;;;;5.85;5.35;;;;;;;8.78;93.37;101416.13;5045627;27;20016;-71
2022/03/14 04:40:18;;;;;;;6.60;6.10;;;;;;;8.77;93.08;101422.34;5024343;27;20917;-72
2022/03/14 04:42:43;;;;;;;7.68;6.35;;;;;;;8.72;93.83;101419.19;4982621;27;20405;-72
2022/03/14 04:45:09;;;;;;;7.38;6.78;;;;;;;8.68;94.12;101431.75;4982072;27;20923;-72
2022/03/14 04:47:35;;;;;;;7.28;6.57;;;;;;;8.75;94.02;101442.72;5000827;27;20025;-73
2022/03/14 04:50:01;;;;;;;7.65;7.05;;;;;;;8.76;94.45;101439.97;5036174;27;20020;-71
2022/03/14 04:52:29;;;;;;;7.95;7.25;;;;;;;8.78;94.55;101442.50;5021486;27;20386;-73
2022/03/14 04:54:56;;;;;;;8.40;7.63;;;;;;;8.85;94.57;101443.75;5001424;27;20124;-74
2022/03/14 04:57:21;;;;;;;9.00;8.13;;;;;;;8.88;94.23;101448.84;5038267;27;20114;-71
2022/03/14 04:59:47;;;;;;;8.95;8.13;;;;;;;8.80;94.80;101459.09;5020112;27;20746;-72
2022/03/14 05:02:12;;;;;;;9.52;8.63;;;;;;;8.77;94.78;101457.50;5002607;28;20136;-72
2022/03/14 05:04:38;;;;;;;10.18;9.18;;;;;;;8.77;94.90;101459.28;5001195;28;20056;-72
2022/03/14 05:07:06;;;;;;;10.52;9.63;;;;;;;8.81;94.71;101463.41;5010325;27;20040;-71
2022/03/14 05:09:31;;;;;;;10.30;9.30;;;;;;;8.85;94.78;101464.88;5028403;27;20986;-73
2022/03/14 05:11:56;;;;;;;10.48;9.57;;;;;;;8.88;94.67;101464.69;5008302;28;20037;-72
2022/03/14 05:14:22;;;;;;;10.85;9.82;;;;;;;8.73;94.50;101463.13;5008034;28;20024;-72
2022/03/14 05:16:48;;;;;;;10.85;9.85;;;;;;;8.74;94.45;101468.28;4994330;28;20330;-71
2022/03/14 05:19:13;;;;;;;11.30;10.20;;;;;;;8.80;95.12;101466.16;5025668;28;20078;-72
2022/03/14 05:21:39;;;;;;;10.57;9.65;;;;;;;8.76;94.05;101471.66;5026310;28;20735;-72
2022/03/14 05:24:05;;;;;;;10.57;9.68;;;;;;;8.83;94.36;101482.63;5016103;28;20315;-73
2022/03/14 05:26:31;;;;;;;10.68;9.45;;;;;;;8.92;94.12;101486.41;5052051;27;20041;-73
2022/03/14 05:28:57;;;;;;;10.65;9.63;;;;;;;8.84;93.57;101489.59;5045213;27;20111;-71
2022/03/14 05:31:23;;;;;;;10.13;9.13;;;;;;;8.88;93.96;101485.81;5036065;27;20356;-72
2022/03/14 05:33:48;;;;;;;9.90;9.00;;;;;;;8.85;93.27;101496.53;5033674;27;20091;-73
2022/03/14 05:36:14;;;;;;;9.27;8.40;;;;;;;8.86;93.67;101498.25;5041413;27;20013;-72
2022/03/14 05:38:39;;;;;;;8.77;7.97;;;;;;;8.90;93.68;101499.72;5007668;28;20029;-72
2022/03/14 05:41:04;;;;;;;7.93;7.32;;;;;;;8.99;93.11;101513.22;5023951;27;20158;-71
2022/03/14 05:43:36;;;;;;;7.50;6.90;;;;;;;8.96;92.75;101510.81;5015154;28;20422;-73
2022/03/14 05:46:02;;;;;;;7.20;6.50;;;;;;;9.02;92.11;101518.28;5000994;28;20745;-72
2022/03/14 05:48:28;;;;;;;6.85;5.25;;;;;;;9.00;91.17;101522.84;4993844;27;20043;-71
2022/03/14 05:50:53;;;;;;;6.00;5.50;;;;;;;9.03;91.10;101526.09;5013389;27;20008;-72
2022/03/14 05:53:18;;;;;;;5.05;4.70;;;;;;;9.10;89.94;101523.88;4996404;28;20537;-72
2022/03/14 05:55:44;;;;;;;4.95;4.55;;;;;;;9.11;89.85;101530.84;5033618;27;20089;-73
2022/03/14 05:58:09;;;;;;;4.65;4.20;;;;;;;9.15;89.63;101531.47;5036459;27;20939;-73
2022/03/14 06:00:36;;;;;;;4.45;3.83;;;;;;;9.09;88.93;101527.47;5019050;27;20101;-72
2022/03/14 06:03:01;;;;;;;4.25;3.85;;;;;;;9.07;89.20;101527.56;5024245;27;20653;-72
2022/03/14 06:05:28;;;;;;;3.97;3.70;;;;;;;9.06;89.05;101540.88;4998609;27;20269;-72
2022/03/14 06:07:53;;;;;;;3.72;3.45;;;;;;;9.03;88.98;101543.75;5015883;27;20120;-72
2022/03/14 06:10:19;;;;;;;3.85;3.47;;;;;;;9.04;89.77;101538.34;5038371;27;20410;-73
2022/03/14 06:12:44;;;;;;;3.53;3.33;;;;;;;9.08;88.98;101539.84;5015203;27;20140;-71
2022/03/14 06:15:13;;;;;;;3.78;3.30;;;;;;;9.03;88.17;101547.22;4998856;27;20009;-72
2022/03/14 06:17:41;;;;;;;3.53;3.33;;;;;;;9.04;88.69;101548.91;5019684;27;20985;-73
2022/03/14 06:20:08;;;;;;;4.22;3.78;;;;;;;8.98;88.51;101551.13;4999853;27;20134;-75
2022/03/14 06:22:38;;;;;;;3.95;3.55;;;;;;;9.09;89.08;101561.78;5033193;27;20152;-71
2022/03/14 06:25:04;;;;;;;4.03;3.72;;;;;;;9.01;88.74;101564.97;5026650;27;20005;-73
2022/03/14 06:27:30;;;;;;;3.92;3.63;;;;;;;9.05;88.10;101570.88;4999704;27;20040;-71
2022/03/14 06:29:56;;;;;;;4.22;3.40;;;;;;;9.10;87.95;101576.69;5035618;27;20024;-73
2022/03/14 06:32:22;;;;;;;3.88;3.20;;;;;;;9.13;87.34;101580.91;5020195;27;20036;-73
2022/03/14 06:34:47;;;;;;;5.00;3.80;;;;;;;9.08;87.42;101586.50;5018769;27;20024;-71
2022/03/14 06:37:13;;;;;;;4.05;3.75;;;;;;;9.03;88.14;101578.06;5007663;27;20456;-72
2022/03/14 06:39:38;;;;;;;4.90;3.22;;;;;;;9.05;88.50;101587.56;5022038;27;20028;-71
2022/03/14 06:42:09;;;;;;;3.83;3.20;;;;;;;9.00;87.70;101588.84;4997397;27;20036;-73
2022/03/14 06:44:39;;;;;;;3.88;3.50;;;;;;;8.98;84.78;101585.44;5002258;27;20036;-71
2022/03/14 06:47:09;;;;;;;4.85;3.20;;;;;;;9.03;86.52;101591.28;5012110;27;20124;-72
2022/03/14 06:49:39;;;;;;;3.92;3.47;;;;;;;9.07;87.79;101592.75;5014369;27;20406;-72
2022/03/14 06:52:04;;;;;;;3.38;3.08;;;;;;;9.07;88.70;101595.38;5036571;27;20044;-72
2022/03/14 06:54:30;;;;;;;4.15;3.28;;;;;;;9.10;88.11;101600.44;5026326;27;20020;-72
2022/03/14 06:56:55;;;;;;;4.78;3.40;;;;;;;9.03;88.54;101607.09;4997259;27;20148;-72
2022/03/14 06:59:21;;;;;;;3.85;3.60;;;;;;;9.08;88.83;101602.34;5036331;27;20028;-72
2022/03/14 07:01:46;;;;;;;4.22;3.15;;;;;;;9.07;86.61;101603.31;5001450;27;20017;-72
2022/03/14 07:04:12;;;;;;;4.93;3.45;;;;;;;9.06;86.83;101613.00;5023487;27;20012;-72
2022/03/14 07:06:37;;;;;;;4.32;3.90;;;;;;;9.17;87.12;101617.56;5001958;27;20024;-73
2022/03/14 07:09:03;;;;;;;3.42;3.10;;;;;;;9.10;86.59;101621.56;5041506;27;20005;-72
2022/03/14 07:11:28;;;;;;;6.82;3.72;;;;;;;9.16;86.89;101625.59;5004634;27;20020;-72
2022/03/14 07:13:53;;;;;;;3.65;3.35;;;;;;;9.12;88.06;101630.22;5040108;27;20023;-73
2022/03/14 07:16:20;;;;;;;7.03;3.40;;;;;;;9.18;88.13;101644.78;5042293;27;20780;-71
2022/03/14 07:18:46;;;;;;;4.50;3.10;;;;;;;9.18;87.04;101640.38;5029821;27;20052;-72
2022/03/14 07:21:11;;;;;;;4.38;3.38;;;;;;;9.22;86.13;101641.00;5059236;27;20140;-73
2022/03/14 07:23:37;;;;;;;3.97;3.55;;;;;;;9.24;87.03;101650.50;5042420;27;20799;-73
2022/03/14 07:26:02;;;;;;;5.13;3.25;;;;;;;9.19;86.11;101651.78;5033206;27;20025;-72
2022/03/14 07:28:28;;;;;;;3.45;3.00;;;;;;;9.13;84.67;101658.31;5020135;27;20625;-72
2022/03/14 07:30:54;;;;;;;3.83;3.20;;;;;;;9.28;85.22;101664.38;4978574;28;20431;-73
2022/03/14 07:33:20;;;;;;;4.80;3.35;;;;;;;9.36;85.74;101663.81;5033993;27;20018;-73
2022/03/14 07:35:45;;;;;;;3.92;3.13;;;;;;;9.43;85.86;101668.59;4999638;27;20005;-71
2022/03/14 07:38:10;;;;;;;4.05;3.10;;;;;;;9.49;84.85;101672.59;5036877;27;20086;-72
2022/03/14 07:40:36;;;;;;;3.50;3.10;;;;;;;9.62;84.06;101675.22;5021162;27;20778;-71
2022/03/14 07:43:01;;;;;;;5.32;3.00;;;;;;;9.55;83.42;101676.59;5029392;27;20073;-73
2022/03/14 07:45:27;;;;;;;6.32;3.03;;;;;;;9.63;83.36;101675.13;4994103;27;20862;-72
2022/03/14 07:47:53;;;;;;;4.00;3.15;;;;;;;9.67;82.97;101674.91;5032768;27;20021;-72
2022/03/14 07:50:19;;;;;;;4.68;3.05;;;;;;;9.59;82.10;101675.44;5019146;27;20007;-73
2022/03/14 07:52:44;;;;;;;5.10;3.00;;;;;;;9.53;81.43;101679.38;5036200;27;20040;-71
2022/03/14 07:55:10;;;;;;;4.68;3.13;;;;;;;9.58;80.63;101673.75;5017710;27;20017;-73
2022/03/14 07:57:35;;;;;;;7.55;3.22;;;;;;;9.74;82.23;101678.78;5020937;27;20528;-72
2022/03/14 08:00:02;;;;;;;6.55;3.33;;;;;;;9.89;81.00;101683.00;5029526;27;20060;-74
2022/03/14 08:02:27;;;;;;;6.88;3.10;;;;;;;9.82;80.89;101687.03;5041374;27;20133;-74
2022/03/14 08:04:52;;;;;;;4.63;2.95;;;;;;;9.89;80.20;101696.22;5028676;27;20398;-72
2022/03/14 08:07:19;;;;;;;6.72;3.50;;;;;;;9.86;79.46;101709.66;5056759;27;20029;-73
2022/03/14 08:09:46;;;;;;;6.38;3.10;;;;;;;9.81;79.08;101709.13;5054775;27;20418;-73
2022/03/14 08:12:12;;;;;;;4.13;2.97;;;;;;;9.89;80.21;101714.72;5022411;27;20044;-72
2022/03/14 08:14:38;;;;;;;5.43;3.20;;;;;;;9.97;80.35;101715.03;5022194;27;20020;-73
2022/03/14 08:17:03;;;;;;;6.22;3.50;;;;;;;10.04;79.96;101723.38;5003704;27;20253;-73
2022/03/14 08:19:29;;;;;;;6.45;3.28;;;;;;;10.07;79.79;101717.88;5055515;27;20328;-72
2022/03/14 08:21:56;;;;;;;3.40;2.85;;;;;;;10.02;78.96;101721.78;5055999;27;20066;-73
2022/03/14 08:24:22;;;;;;;5.90;2.83;;;;;;;10.08;77.83;101731.91;5043144;27;20005;-72
2022/03/14 08:26:48;;;;;;;6.97;3.40;;;;;;;10.17;77.80;101727.75;5008292;27;20140;-71
2022/03/14 08:29:13;;;;;;;5.68;2.90;;;;;;;10.18;76.98;101735.63;5036108;28;20056;-74
2022/03/14 08:31:38;;;;;;;9.27;3.75;;;;;;;10.09;76.84;101736.25;5047829;27;20085;-72
2022/03/14 08:34:06;;;;;;;5.50;3.17;;;;;;;10.17;77.94;101741.84;5060620;27;20034;-73
2022/03/14 08:36:33;;;;;;;5.68;3.33;;;;;;;10.17;78.78;101744.50;5078942;27;20025;-74
2022/03/14 08:38:58;;;;;;;9.18;3.40;;;;;;;10.24;76.15;101745.75;5074563;27;20028;-72
2022/03/14 08:41:23;;;;;;;3.92;2.83;;;;;;;10.28;76.59;101752.50;5024188;27;20029;-72
2022/03/14 08:43:49;;;;;;;5.72;2.88;;;;;;;10.32;76.88;101747.84;5028085;27;20517;-73
2022/03/14 08:46:17;;;;;;;7.15;3.17;;;;;;;10.40;76.76;101755.25;5039195;27;20009;-72
2022/03/14 08:48:42;;;;;;;4.68;3.28;;;;;;;10.29;72.13;101763.94;5036113;27;20027;-72
2022/03/14 08:51:08;;;;;;;4.95;3.25;;;;;;;10.23;73.93;101764.38;5039264;27;20013;-74
2022/03/14 08:53:34;;;;;;;5.13;3.47;;;;;;;10.27;73.38;101769.34;5029089;27;20045;-72
2022/03/14 08:56:02;;;;;;;4.07;2.83;;;;;;;10.39;72.35;101772.09;5021724;27;20114;-73
2022/03/14 08:58:29;;;;;;;5.55;2.30;;;;;;;10.40;73.12;101784.38;5028762;27;20017;-74
2022/03/14 09:00:55;;;;;;;7.57;2.90;;;;;;;10.29;72.47;101785.97;5021573;27;20032;-73
2022/03/14 09:03:21;;;;;;;6.20;3.10;;;;;;;10.27;72.91;101784.38;5004147;28;20478;-71
2022/03/14 09:05:46;;;;;;;4.97;2.97;;;;;;;10.16;72.10;101787.75;5033762;27;20024;-74
2022/03/14 09:08:12;;;;;;;6.47;3.25;;;;;;;10.32;72.93;101791.03;5039038;28;20704;-73
2022/03/14 09:10:37;;;;;;;4.15;3.25;;;;;;;10.45;72.98;101790.19;5040974;27;20033;-74
2022/03/14 09:13:03;;;;;;;6.82;3.42;;;;;;;10.22;71.43;101797.06;5024528;28;20954;-73
2022/03/14 09:15:29;;;;;;;5.95;3.40;;;;;;;10.07;72.35;101801.66;5007852;27;20031;-72
2022/03/14 09:17:57;;;;;;;4.97;3.50;;;;;;;10.22;70.92;101795.25;5038003;28;20087;-74
2022/03/14 09:20:24;;;;;;;5.22;4.10;;;;;;;10.08;71.43;101795.38;5027552;27;20790;-73
2022/03/14 09:22:49;;;;;;;6.53;4.10;;;;;;;10.15;72.59;101796.66;5023986;28;20520;-73
2022/03/14 09:25:15;;;;;;;5.00;4.05;;;;;;;10.26;73.63;101804.66;5025705;27;21009;-74
2022/03/14 09:27:43;;;;;;;5.22;3.90;;;;;;;10.27;71.62;101809.00;5030536;28;20249;-74
2022/03/14 09:30:10;;;;;;;10.85;4.63;;;;;;;10.34;72.52;101814.75;5035841;27;20013;-74
2022/03/14 09:32:36;;;;;;;5.40;4.20;;;;;;;10.35;70.60;101815.59;4997823;28;20820;-74
2022/03/14 09:35:01;;;;;;;5.88;4.78;;;;;;;10.36;70.67;101830.53;5037322;27;20028;-73
2022/03/14 09:37:27;;;;;;;5.68;4.43;;;;;;;10.28;71.20;101826.59;5017362;27;20005;-74
2022/03/14 09:39:52;;;;;;;4.22;3.80;;;;;;;10.18;71.13;101830.84;5038552;27;20393;-72
2022/03/14 09:42:18;;;;;;;6.72;3.50;;;;;;;10.23;69.56;101833.16;5041691;27;20001;-73
2022/03/14 09:44:43;;;;;;;4.13;3.38;;;;;;;10.34;69.44;101835.06;5023355;27;20078;-72
2022/03/14 09:47:09;;;;;;;5.07;3.63;;;;;;;10.26;70.83;101833.78;5020108;28;20062;-73
2022/03/14 09:49:34;;;;;;;5.22;3.70;;;;;;;10.38;70.53;101837.41;5006636;27;20743;-73
2022/03/14 09:52:00;;;;;;;8.00;3.85;;;;;;;10.52;69.60;101849.66;5027608;27;20041;-73
2022/03/14 09:54:26;;;;;;;4.18;3.78;;;;;;;10.65;70.15;101850.47;5024956;27;20006;-73
2022/03/14 09:56:51;;;;;;;4.10;3.70;;;;;;;10.70;70.64;101850.13;5025793;27;20024;-72
2022/03/14 09:59:16;;;;;;;6.15;3.45;;;;;;;10.74;68.76;101850.75;5045157;27;20058;-72
2022/03/14 10:01:42;;;;;;;5.10;3.20;;;;;;;10.92;68.82;101857.38;5045056;27;20803;-73
2022/03/14 10:04:08;;;;;;;3.30;3.00;;;;;;;11.02;68.06;101857.53;5037315;27;20082;-73
2022/03/14 10:06:34;;;;;;;4.38;3.10;;;;;;;11.14;66.97;101861.94;5020882;27;20097;-74
2022/03/14 10:08:59;;;;;;;4.45;2.92;;;;;;;11.12;67.30;101858.53;5039103;27;20017;-73
2022/03/14 10:11:24;;;;;;;4.28;3.08;;;;;;;11.11;66.46;101861.31;5042900;27;20024;-74
2022/03/14 10:13:50;;;;;;;3.63;3.33;;;;;;;11.02;66.40;101868.13;5043644;27;20041;-72
2022/03/14 10:16:16;;;;;;;4.30;3.33;;;;;;;11.16;66.87;101875.91;5044328;27;20009;-73
2022/03/14 10:18:56;;;;;;;4.93;3.53;;;;;;;11.27;66.50;101877.78;5029621;27;20373;-73
2022/03/14 10:21:35;;;;;;;4.90;3.67;;;;;;;11.45;65.52;101877.34;5027337;27;20021;-73
2022/03/14 10:24:05;;;;;;;4.55;3.38;;;;;;;11.72;65.94;101878.91;5030769;27;20948;-74
2022/03/14 10:26:33;;;;;;;4.97;3.90;;;;;;;12.03;64.20;101880.09;5036952;27;20070;-73
2022/03/14 10:28:59;;;;;;;5.13;4.80;;;;;;;12.29;61.26;101886.03;5044672;27;20911;-72
2022/03/14 10:31:35;;;;;;;4.97;4.38;;;;;;;12.24;60.93;101890.88;5042751;27;20017;-72
2022/03/14 10:34:04;;;;;;;5.82;5.40;;;;;;;12.47;60.10;101902.31;5047876;27;20072;-72
2022/03/14 10:36:53;;;;;;;6.20;5.72;;;;;;;12.49;59.49;101896.88;5030185;27;20276;-73
2022/03/14 10:39:25;;;;;;;6.60;6.00;;;;;;;13.13;58.62;101901.50;5028406;27;20021;-71
2022/03/14 10:42:05;;;;;;;6.45;5.95;;;;;;;15.40;53.90;101900.75;5044986;27;20017;-73
2022/03/14 10:44:31;;;;;;;7.68;7.10;;;;;;;16.74;48.97;101907.91;5015947;27;20136;-72
2022/03/14 10:47:00;;;;;;;7.95;7.43;;;;;;;16.56;48.14;101905.16;5023420;27;20029;-73
2022/03/14 10:49:29;;;;;;;6.28;5.78;;;;;;;16.43;46.97;101903.66;5000839;27;20121;-72
2022/03/14 10:51:56;;;;;;;6.15;5.60;;;;;;;15.50;48.79;101894.53;5039596;27;20633;-72
2022/03/14 10:54:21;;;;;;;6.40;5.85;;;;;;;15.78;48.76;101900.88;5028753;27;20023;-73
2022/03/14 10:57:29;;;;;;;5.90;5.40;;;;;;;16.38;47.37;101905.09;5052473;27;20588;-73
2022/03/14 10:59:55;;;;;;;5.10;4.60;;;;;;;16.05;46.28;101910.81;4979559;28;20014;-73
2022/03/14 11:02:25;;;;;;;4.95;4.47;;;;;;;15.13;47.72;101904.09;5032371;27;20169;-72
2022/03/14 11:04:57;;;;;;;5.88;3.83;;;;;;;15.54;47.39;101909.28;5051854;27;20865;-73
2022/03/14 11:07:32;;;;;;;4.88;3.85;;;;;;;15.94;46.26;101914.47;5046315;27;20047;-72
2022/03/14 11:09:59;;;;;;;4.28;3.88;;;;;;;16.65;45.32;101906.94;5050930;27;20017;-72
2022/03/14 11:12:29;;;;;;;6.32;3.90;;;;;;;17.84;43.94;101908.66;5019371;27;20036;-72
2022/03/14 11:15:05;;;;;;;3.22;3.00;;;;;;;18.52;41.82;101905.19;5037544;27;20866;-72
2022/03/14 11:17:31;;;;;;;3.33;2.80;;;;;;;18.19;43.25;101905.03;5027597;27;20940;-72
2022/03/14 11:20:01;;;;;;;4.00;2.70;;;;;;;17.95;44.38;101918.28;5060219;27;20485;-72
2022/03/14 11:22:27;;;;;;;2.85;2.65;;;;;;;18.27;43.58;101906.09;5020580;27;20029;-73
2022/03/14 11:24:57;;;;;;;2.55;2.33;;;;;;;17.64;44.62;101905.28;5036504;27;20021;-73
2022/03/14 11:27:28;;;;;;;2.70;2.50;;;;;;;18.47;43.17;101909.38;5035423;27;20017;-73